Time;durP1;ratioP1;P1;durP2;ratioP2;P2;SDS_P1;SDS_P2;PMS_P1;PMS_P2;Temp;Humidity;BMP_temperature;BMP_pressure;BME280_temperature;BME280_humidity;BME280_pressure;Samples;Min_cycle;Max_cycle;Signal;HPM_P1;HPM_P2
2022/04/25 00:00:12;;;;;;;20.67;10.85;;;;;;;6.43;81.25;100808.34;6187012;23;20363;-77
2022/04/25 00:02:37;;;;;;;15.70;9.65;;;;;;;6.83;81.89;100875.78;6187386;23;20009;-77
2022/04/25 00:05:06;;;;;;;16.13;9.30;;;;;;;6.74;82.23;100865.94;6186969;23;20007;-79
2022/04/25 00:07:32;;;;;;;18.80;11.00;;;;;;;6.77;82.14;100874.31;6187173;23;20008;-78
2022/04/25 00:09:57;;;;;;;18.08;10.63;;;;;;;6.74;82.66;100886.47;6187034;23;20146;-77
2022/04/25 00:12:22;;;;;;;20.60;10.40;;;;;;;6.51;82.43;100849.06;6186816;23;20431;-77
2022/04/25 00:14:48;;;;;;;18.52;10.48;;;;;;;6.47;82.72;100847.53;6186589;23;20036;-78
2022/04/25 00:17:13;;;;;;;16.80;10.38;;;;;;;6.68;83.12;100892.72;6186404;23;20031;-77
2022/04/25 00:19:38;;;;;;;19.73;10.52;;;;;;;6.55;83.44;100873.66;6186872;23;20008;-79
2022/04/25 00:22:04;;;;;;;17.95;10.52;;;;;;;6.47;83.32;100874.00;6187001;23;20001;-78
2022/04/25 00:24:29;;;;;;;21.00;11.27;;;;;;;6.57;83.46;100894.94;6186613;23;20029;-77
2022/04/25 00:26:55;;;;;;;16.92;11.07;;;;;;;6.52;83.89;100902.03;6186945;23;20032;-77
2022/04/25 00:29:21;;;;;;;19.92;11.60;;;;;;;6.52;84.05;100897.72;6186848;23;20036;-77
2022/04/25 00:31:46;;;;;;;19.73;11.68;;;;;;;6.48;84.24;100901.31;6186672;23;20005;-78
2022/04/25 00:34:11;;;;;;;22.75;11.48;;;;;;;6.47;83.94;100898.81;6187096;23;20015;-77
2022/04/25 00:36:37;;;;;;;18.75;11.55;;;;;;;6.41;84.22;100902.50;6186523;23;20423;-77
2022/04/25 00:39:02;;;;;;;17.85;11.88;;;;;;;6.40;84.57;100907.72;6186540;23;20005;-76
2022/04/25 00:41:29;;;;;;;23.45;11.85;;;;;;;6.21;84.57;100876.91;6186880;23;20005;-77
2022/04/25 00:43:56;;;;;;;17.33;11.40;;;;;;;6.33;84.85;100899.44;6186241;23;20001;-76
2022/04/25 00:46:23;;;;;;;21.83;12.23;;;;;;;6.30;84.89;100907.28;6186872;23;20005;-76
2022/04/25 00:48:50;;;;;;;18.70;12.05;;;;;;;6.29;84.90;100897.91;6186282;23;20021;-78
2022/04/25 00:51:16;;;;;;;23.63;12.13;;;;;;;6.28;85.23;100894.50;6186423;23;20100;-77
2022/04/25 00:53:46;;;;;;;20.15;11.93;;;;;;;6.22;85.27;100894.78;6186508;23;20012;-76
2022/04/25 00:56:15;;;;;;;21.95;12.32;;;;;;;6.15;85.77;100890.00;6186886;23;20076;-77
2022/04/25 00:58:43;;;;;;;19.67;12.00;;;;;;;5.90;85.70;100855.19;6186045;23;20463;-77
2022/04/25 01:01:08;;;;;;;22.90;11.95;;;;;;;6.14;86.32;100898.59;6186085;23;20439;-77
2022/04/25 01:03:33;;;;;;;22.33;12.25;;;;;;;6.10;85.84;100902.19;6186512;23;20001;-77
2022/04/25 01:05:59;;;;;;;22.27;12.50;;;;;;;6.07;86.54;100892.06;6158836;23;20012;-78
2022/04/25 01:08:26;;;;;;;21.42;12.27;;;;;;;6.01;87.05;100898.28;6186173;23;20054;-77
2022/04/25 01:10:51;;;;;;;18.50;13.02;;;;;;;6.02;87.10;100899.94;6186920;23;20303;-77
2022/04/25 01:13:17;;;;;;;21.45;14.27;;;;;;;5.95;87.17;100888.28;6160588;23;20005;-77
2022/04/25 01:15:42;;;;;;;20.00;12.27;;;;;;;5.68;87.19;100846.69;6186637;23;20009;-77
2022/04/25 01:18:07;;;;;;;24.25;13.02;;;;;;;5.93;87.50;100887.53;6186565;23;20308;-77
2022/04/25 01:20:33;;;;;;;24.88;14.15;;;;;;;5.67;87.62;100858.66;6186098;23;20427;-77
2022/04/25 01:28:32;;;;;;;25.52;14.00;;;;;;;5.85;88.04;100895.50;6186430;23;20064;-77
2022/04/25 01:30:57;;;;;;;21.67;13.43;;;;;;;5.72;88.87;100871.31;6186631;23;20013;-77
2022/04/25 01:33:23;;;;;;;22.23;13.07;;;;;;;5.79;88.31;100888.06;6185636;23;20028;-77
2022/04/25 01:35:48;;;;;;;25.90;14.95;;;;;;;5.44;88.53;100841.72;6185334;23;20427;-77
2022/04/25 01:38:13;;;;;;;23.40;13.95;;;;;;;5.72;88.77;100892.63;6186489;23;20001;-77
2022/04/25 01:40:39;;;;;;;20.92;13.52;;;;;;;5.65;88.72;100888.66;6158364;23;20009;-77
2022/04/25 01:43:04;;;;;;;21.23;13.70;;;;;;;5.35;89.22;100839.53;6186257;23;20358;-78
2022/04/25 01:45:29;;;;;;;21.55;14.00;;;;;;;5.66;89.17;100890.31;6186008;23;20013;-77
2022/04/25 01:47:55;;;;;;;20.60;14.55;;;;;;;5.64;89.79;100896.41;6185792;23;20043;-77
2022/04/25 01:50:20;;;;;;;25.80;14.90;;;;;;;5.53;89.73;100886.59;6185702;23;20494;-76
2022/04/25 01:52:46;;;;;;;28.05;15.93;;;;;;;5.35;89.70;100849.75;6186012;23;20009;-77
2022/04/25 01:55:12;;;;;;;24.30;15.00;;;;;;;5.58;89.88;100889.78;6185967;23;20313;-77
2022/04/25 01:57:37;;;;;;;25.70;15.73;;;;;;;5.57;89.94;100889.84;6185924;23;20434;-77
2022/04/25 02:00:03;;;;;;;24.27;15.27;;;;;;;5.54;90.39;100897.69;6186067;23;20088;-77
2022/04/25 02:02:29;;;;;;;25.35;15.45;;;;;;;5.54;90.44;100898.50;6158474;23;20036;-77
2022/04/25 02:04:55;;;;;;;29.45;16.33;;;;;;;5.40;90.21;100882.84;6185855;23;20001;-77
2022/04/25 02:07:21;;;;;;;24.52;15.18;;;;;;;5.48;90.40;100903.88;6185556;23;20009;-77
2022/04/25 02:09:46;;;;;;;26.20;15.73;;;;;;;5.46;91.03;100895.44;6186238;23;20481;-77
2022/04/25 02:12:11;;;;;;;27.58;16.23;;;;;;;5.37;91.01;100888.94;6185911;23;20461;-77
2022/04/25 02:14:38;;;;;;;26.15;15.65;;;;;;;5.27;90.92;100869.72;6185875;23;20009;-77
2022/04/25 02:17:03;;;;;;;28.20;16.88;;;;;;;5.08;91.29;100838.06;6185820;23;20024;-78
2022/04/25 02:19:29;;;;;;;28.13;15.77;;;;;;;5.40;91.02;100895.66;6185542;23;20063;-76
2022/04/25 02:21:55;;;;;;;27.40;17.10;;;;;;;5.19;91.31;100867.47;6185501;23;20036;-77
2022/04/25 02:24:21;;;;;;;25.23;16.02;;;;;;;5.25;91.45;100881.75;6185352;23;20000;-77
2022/04/25 02:26:48;;;;;;;30.95;17.30;;;;;;;5.30;91.47;100900.31;6185962;23;20005;-79
2022/04/25 02:29:14;;;;;;;25.40;16.27;;;;;;;5.26;91.48;100893.66;6185696;23;20327;-77
2022/04/25 02:31:39;;;;;;;26.45;16.73;;;;;;;5.25;92.26;100888.59;6185423;23;20031;-77
2022/04/25 02:34:04;;;;;;;26.85;16.70;;;;;;;5.25;92.14;100886.88;6185952;23;20009;-77
2022/04/25 02:36:30;;;;;;;24.58;15.63;;;;;;;5.23;92.09;100893.78;6185832;23;20023;-77
2022/04/25 02:38:55;;;;;;;25.80;17.48;;;;;;;5.11;92.37;100878.91;6158061;23;20029;-77
2022/04/25 02:41:23;;;;;;;26.92;16.30;;;;;;;4.95;92.48;100852.25;6185615;23;20012;-78
2022/04/25 02:43:48;;;;;;;23.17;16.10;;;;;;;5.18;92.57;100888.00;6185729;23;19997;-77
2022/04/25 02:46:16;;;;;;;29.25;17.08;;;;;;;5.01;92.99;100867.34;6185218;23;20031;-77
2022/04/25 02:48:44;;;;;;;27.55;16.65;;;;;;;5.14;92.96;100887.31;6185174;23;19997;-77
2022/04/25 02:51:10;;;;;;;25.98;17.17;;;;;;;4.97;92.62;100858.16;6185038;23;20008;-77
2022/04/25 02:53:36;;;;;;;27.88;16.90;;;;;;;5.12;92.95;100886.53;6185552;23;20005;-77
2022/04/25 02:56:03;;;;;;;29.60;17.27;;;;;;;4.75;92.99;100825.72;6158077;23;20009;-77
2022/04/25 02:58:29;;;;;;;28.00;17.30;;;;;;;4.99;93.39;100869.97;6185747;23;20331;-77
2022/04/25 03:00:57;;;;;;;27.80;16.58;;;;;;;5.04;93.05;100885.19;6185709;23;20361;-78
2022/04/25 03:03:22;;;;;;;28.85;17.65;;;;;;;5.02;93.88;100885.25;6184788;23;20587;-77
2022/04/25 03:05:49;;;;;;;27.15;17.05;;;;;;;4.89;93.96;100864.38;6185198;23;20009;-78
2022/04/25 03:08:17;;;;;;;30.20;17.25;;;;;;;5.02;93.40;100894.66;6185560;23;20327;-78
2022/04/25 03:10:43;;;;;;;32.65;18.15;;;;;;;4.89;93.91;100873.78;6184823;23;20012;-78
2022/04/25 03:13:10;;;;;;;28.73;17.45;;;;;;;4.73;93.86;100842.88;6187547;23;20015;-77
2022/04/25 03:15:39;;;;;;;29.33;17.08;;;;;;;4.83;93.81;100869.75;6187244;23;20081;-77
2022/04/25 03:18:07;;;;;;;29.42;17.60;;;;;;;4.94;94.15;100888.97;6187509;23;20059;-78
2022/04/25 03:20:33;;;;;;;29.90;18.15;;;;;;;4.89;94.11;100892.53;6186981;23;20009;-77
2022/04/25 03:22:58;;;;;;;29.73;18.48;;;;;;;4.61;93.85;100858.66;6187627;23;20028;-77
2022/04/25 03:25:24;;;;;;;28.13;17.73;;;;;;;4.83;94.43;100884.28;6187558;23;20001;-77
2022/04/25 03:27:50;;;;;;;31.40;19.13;;;;;;;4.73;94.33;100878.69;6187786;23;20031;-77
2022/04/25 03:30:16;;;;;;;26.48;17.73;;;;;;;4.80;94.47;100895.44;6187467;23;20016;-77
2022/04/25 03:32:45;;;;;;;28.77;18.30;;;;;;;4.59;94.59;100866.41;6187469;23;20048;-77
2022/04/25 03:35:18;;;;;;;31.33;18.23;;;;;;;4.72;94.53;100897.47;6186948;23;20016;-77
2022/04/25 03:47:44;;;;;;;26.45;17.70;;;;;;;4.27;94.23;100857.38;6194276;22;20036;-76
2022/04/25 03:50:31;;;;;;;34.50;19.35;;;;;;;4.51;94.11;100903.38;6186932;23;20028;-77
2022/04/25 03:53:15;;;;;;;29.65;19.10;;;;;;;3.33;95.24;100712.59;6187548;23;20005;-76
2022/04/25 03:58:49;;;;;;;32.78;19.52;;;;;;;3.77;95.30;100782.53;6164640;23;20016;-77
2022/04/25 04:01:14;;;;;;;33.92;19.77;;;;;;;3.54;95.70;100741.63;6187276;23;20080;-76
2022/04/25 04:03:39;;;;;;;31.13;20.05;;;;;;;4.53;95.63;100909.28;6159890;23;20376;-85
2022/04/25 04:06:09;;;;;;;30.20;20.23;;;;;;;3.36;95.98;100715.88;6187622;22;20072;-77
2022/04/25 04:08:37;;;;;;;34.00;20.95;;;;;;;3.68;96.16;100778.56;6186990;22;20469;-77
2022/04/25 04:11:46;;;;;;;28.73;19.73;;;;;;;4.51;96.51;100911.88;6186950;23;20011;-77
2022/04/25 04:14:10;;;;;;;34.80;20.95;;;;;;;4.54;96.23;100919.44;6185887;23;20522;-80
2022/04/25 04:16:36;;;;;;;30.52;19.40;;;;;;;4.37;96.39;100903.88;6186839;23;20029;-84
2022/04/25 04:19:10;;;;;;;30.55;20.67;;;;;;;3.91;96.62;100833.94;6186878;23;20080;-78
2022/04/25 04:21:44;;;;;;;35.75;20.17;;;;;;;3.99;96.56;100843.91;6186708;23;20423;-84
2022/04/25 04:24:12;;;;;;;34.78;21.10;;;;;;;3.26;96.55;100729.03;6160823;23;19996;-87
2022/04/25 04:26:46;;;;;;;32.42;20.77;;;;;;;3.70;96.95;100809.16;6187049;23;20009;-88
2022/04/25 04:29:32;;;;;;;32.85;20.40;;;;;;;3.08;96.92;100710.06;6187471;23;20012;-89
2022/04/25 04:31:58;;;;;;;39.25;21.63;;;;;;;4.46;96.85;100931.69;6072503;23;20005;-87
2022/04/25 04:34:24;;;;;;;32.55;21.27;;;;;;;4.13;96.70;100867.25;6186635;23;20049;-84
2022/04/25 04:36:51;;;;;;;31.70;21.02;;;;;;;4.34;96.66;100913.41;6187127;23;20025;-84
2022/04/25 04:39:19;;;;;;;33.38;20.90;;;;;;;4.47;97.44;100938.47;6187159;22;20369;-86
2022/04/25 04:45:07;;;;;;;33.35;21.40;;;;;;;3.75;97.16;100814.97;6187281;23;20049;-84
2022/04/25 04:47:36;;;;;;;34.38;21.95;;;;;;;4.07;97.49;100851.31;6187795;23;20005;-88
2022/04/25 04:50:03;;;;;;;35.70;21.92;;;;;;;3.73;97.56;100786.06;6186598;23;20020;-88
2022/04/25 04:52:28;;;;;;;33.78;22.08;;;;;;;4.80;97.14;100944.06;6186499;23;20001;-86
2022/04/25 04:54:53;;;;;;;34.60;22.02;;;;;;;4.68;97.02;100907.88;6186772;23;20005;-87
2022/04/25 04:57:19;;;;;;;33.75;21.73;;;;;;;4.75;96.26;100906.75;6187559;23;20005;-79
2022/04/25 04:59:44;;;;;;;34.70;21.35;;;;;;;5.06;96.17;100953.31;6186889;23;20095;-85
2022/04/25 05:02:09;;;;;;;31.27;21.10;;;;;;;5.13;95.61;100949.63;6186457;23;20485;-82
2022/04/25 05:04:35;;;;;;;33.28;20.80;;;;;;;5.17;95.89;100955.47;6186522;23;20084;-78
2022/04/25 05:07:02;;;;;;;33.53;21.60;;;;;;;5.23;95.53;100954.41;6186644;23;20008;-81
2022/04/25 05:09:28;;;;;;;34.97;20.30;;;;;;;5.25;95.63;100952.63;6186681;23;20005;-81
2022/04/25 05:11:53;;;;;;;34.03;21.63;;;;;;;5.29;95.24;100960.09;6186485;23;20062;-76
2022/04/25 05:14:19;;;;;;;31.75;20.63;;;;;;;5.36;95.47;100960.72;6186340;23;20028;-86
2022/04/25 05:16:45;;;;;;;32.38;20.10;;;;;;;5.46;95.38;100967.13;6186198;23;20005;-79
2022/04/25 05:19:10;;;;;;;31.92;20.27;;;;;;;5.52;95.05;100960.94;6159927;23;20453;-78
2022/04/25 05:21:37;;;;;;;30.58;20.58;;;;;;;5.63;94.54;100977.56;6185941;23;20090;-78
2022/04/25 05:24:03;;;;;;;33.22;20.15;;;;;;;5.70;94.48;100973.00;6159285;23;20015;-77
2022/04/25 05:26:28;;;;;;;29.73;19.67;;;;;;;5.58;93.86;100946.16;6186437;23;20032;-88
2022/04/25 05:28:57;;;;;;;31.02;20.52;;;;;;;5.78;93.92;100972.69;6186671;23;20099;-84
2022/04/25 05:31:23;;;;;;;33.33;20.38;;;;;;;5.92;93.67;100981.53;6186912;23;20028;-85
2022/04/25 05:36:24;;;;;;;32.13;20.25;;;;;;;5.12;92.87;100829.41;6245773;22;20020;-84
2022/04/25 05:39:08;;;;;;;32.50;20.40;;;;;;;5.90;92.83;100957.69;6246711;23;20004;-80
2022/04/25 05:41:36;;;;;;;31.42;19.45;;;;;;;5.42;92.51;100873.41;6220272;23;20003;-81
2022/04/25 05:44:25;;;;;;;31.08;19.70;;;;;;;4.81;92.38;100765.78;6246640;23;20004;-79
2022/04/25 05:47:01;;;;;;;33.85;20.13;;;;;;;5.95;92.56;100948.06;6247182;23;20004;-73
2022/04/25 05:52:17;;;;;;;32.85;19.83;;;;;;;5.73;92.42;100890.91;6246230;23;20038;-77
2022/04/25 05:55:04;;;;;;;;;;;;;;;6.55;91.72;101005.34;6247053;23;20008;-78
2022/04/25 05:57:34;;;;;;;33.22;21.02;;;;;;;5.69;92.03;100845.78;6246903;23;19958;-81
2022/04/25 06:00:15;;;;;;;34.47;20.58;;;;;;;6.52;91.59;100979.81;6246133;23;20361;-78
2022/04/25 06:02:50;;;;;;;32.75;19.95;;;;;;;6.37;91.47;100930.91;6246085;23;20418;-80
2022/04/25 06:05:19;;;;;;;29.60;19.85;;;;;;;6.32;91.57;100920.88;6246365;23;20069;-79
2022/04/25 06:10:22;;;;;;;32.88;19.48;;;;;;;6.95;90.97;101016.41;6244403;22;20042;-78
2022/04/25 06:13:32;;;;;;;34.15;21.00;;;;;;;6.53;91.05;100950.69;6245658;23;20393;-82
2022/04/25 06:23:44;;;;;;;34.47;21.42;;;;;;;7.10;90.54;101018.31;6123313;23;20033;-80
2022/04/25 06:26:18;;;;;;;36.58;21.33;;;;;;;5.96;90.96;100820.75;6142422;23;20025;-78
2022/04/25 06:35:27;;;;;;;34.10;21.70;;;;;;;7.49;89.65;101022.50;6177498;22;20087;-76
2022/04/25 06:38:05;;;;;;;33.53;20.65;;;;;;;6.43;89.25;100820.34;6167033;23;20367;-77
2022/04/25 06:41:01;;;;;;;30.25;20.48;;;;;;;7.74;89.11;101025.56;6186421;22;20324;-77
2022/04/25 06:50:32;;;;;;;34.53;22.50;;;;;;;6.54;87.77;100823.25;6036983;23;20035;-76
2022/04/25 06:53:47;;;;;;;32.75;21.65;;;;;;;7.86;88.51;101029.28;6036661;23;20054;-84
2022/04/25 07:04:11;;;;;;;32.75;21.45;;;;;;;7.56;87.68;100967.31;6215778;23;20024;-77
2022/04/25 07:06:41;;;;;;;33.42;22.73;;;;;;;6.94;87.45;100844.47;6204607;22;20091;-79
2022/04/25 07:09:34;;;;;;;34.38;21.77;;;;;;;8.24;87.27;101042.00;6187857;22;20017;-77
2022/04/25 07:44:42;;;;;;;33.55;22.25;;;;;;;7.84;88.98;101068.81;6092352;23;20029;-78
2022/04/25 07:48:16;;;;;;;33.08;23.48;;;;;;;7.66;89.54;101070.50;6094440;23;20014;-78
2022/04/25 07:54:15;;;;;;;35.53;23.65;;;;;;;7.05;91.69;101009.13;6155422;23;20068;-78
2022/04/25 07:57:21;;;;;;;37.42;25.45;;;;;;;7.47;92.25;101075.69;6129577;23;20014;-78
2022/04/25 08:00:02;;;;;;;40.17;25.58;;;;;;;7.02;93.16;101022.13;6157244;23;20041;-76
2022/04/25 08:02:49;;;;;;;39.67;25.85;;;;;;;7.36;92.93;101086.44;6155935;23;20064;-81
2022/04/25 08:08:36;;;;;;;37.10;25.60;;;;;;;6.86;94.39;101006.56;6156893;23;20036;-76
2022/04/25 08:11:07;;;;;;;44.00;28.40;;;;;;;6.53;94.77;100967.81;6156554;23;20041;-76
2022/04/25 08:19:03;;;;;;;41.95;27.95;;;;;;;7.36;95.86;101094.16;6157234;23;20036;-75
2022/04/25 08:21:29;;;;;;;45.40;28.90;;;;;;;7.15;96.41;101057.44;6157437;23;20475;-75
2022/04/25 08:23:54;;;;;;;46.30;29.83;;;;;;;7.45;96.07;101105.75;6157214;23;20105;-75
2022/04/25 08:26:23;;;;;;;45.15;29.42;;;;;;;7.44;96.09;101101.53;6155820;23;20415;-76
2022/04/25 08:28:48;;;;;;;46.03;28.55;;;;;;;7.45;96.14;101108.31;6156930;23;20035;-75
2022/04/25 08:31:13;;;;;;;46.60;30.65;;;;;;;7.48;96.92;101105.63;6158153;23;20011;-75
2022/04/25 08:33:43;;;;;;;47.65;30.77;;;;;;;7.60;97.29;101111.94;6157403;23;20020;-76
2022/04/25 08:36:09;;;;;;;44.65;29.63;;;;;;;7.64;96.92;101111.72;6157167;23;20121;-76
2022/04/25 08:38:34;;;;;;;48.22;31.05;;;;;;;7.69;96.72;101107.22;6157058;23;20379;-76
2022/04/25 08:41:06;;;;;;;45.00;29.13;;;;;;;7.70;96.35;101108.03;6157070;23;20085;-75
2022/04/25 08:43:31;;;;;;;44.85;30.90;;;;;;;7.78;96.23;101115.41;6157244;23;20362;-76
2022/04/25 08:45:58;;;;;;;48.28;30.42;;;;;;;7.83;96.55;101118.59;6157245;23;20084;-76
2022/04/25 08:48:25;;;;;;;46.60;30.42;;;;;;;7.91;96.45;101121.63;6157311;23;20080;-75
2022/04/25 08:50:52;;;;;;;46.33;32.42;;;;;;;7.67;95.88;101092.75;6157315;23;20005;-76
2022/04/25 08:53:20;;;;;;;50.00;31.48;;;;;;;7.58;95.79;101078.63;6156820;23;20033;-75
2022/04/25 08:55:45;;;;;;;50.30;31.42;;;;;;;7.98;96.11;101129.00;6156594;23;20005;-78
2022/04/25 08:58:12;;;;;;;49.67;30.80;;;;;;;7.87;95.78;101102.13;6156811;23;20009;-76
2022/04/25 09:00:37;;;;;;;49.85;30.85;;;;;;;7.96;96.78;101101.66;6156818;23;20017;-76
2022/04/25 09:03:03;;;;;;;49.60;31.75;;;;;;;8.14;96.68;101113.63;6157095;23;20424;-76
2022/04/25 09:05:28;;;;;;;50.03;31.80;;;;;;;8.20;95.69;101097.91;6157100;23;20033;-77
2022/04/25 09:07:54;;;;;;;43.22;29.90;;;;;;;8.51;94.85;101137.63;6156774;23;20324;-75
2022/04/25 09:10:21;;;;;;;44.58;28.85;;;;;;;8.59;95.43;101144.06;6156439;23;20323;-76
2022/04/25 09:12:47;;;;;;;41.40;28.35;;;;;;;8.63;94.80;101139.56;6156920;23;20014;-76
2022/04/25 09:15:20;;;;;;;41.65;27.55;;;;;;;8.72;93.30;101144.28;6156645;23;20002;-76
2022/04/25 09:17:46;;;;;;;38.28;25.50;;;;;;;8.66;93.10;101142.03;6156507;23;20005;-76
2022/04/25 09:20:12;;;;;;;37.10;25.25;;;;;;;8.76;92.99;101150.94;6156188;23;20010;-76
2022/04/25 09:22:42;;;;;;;28.70;20.73;;;;;;;8.76;91.31;101150.94;6156607;23;20024;-76
2022/04/25 09:25:12;;;;;;;28.60;20.85;;;;;;;8.73;90.39;101148.50;6156993;23;20024;-76
2022/04/25 09:27:39;;;;;;;26.48;19.42;;;;;;;8.65;89.47;101131.78;6156170;23;20006;-76
2022/04/25 09:30:20;;;;;;;28.23;20.33;;;;;;;8.90;90.52;101161.38;6156489;23;20415;-76
2022/04/25 09:32:47;;;;;;;28.70;20.13;;;;;;;8.96;90.14;101164.56;6156535;23;20013;-77
2022/04/25 09:35:38;;;;;;;28.48;20.35;;;;;;;9.07;90.15;101164.84;6156171;23;20036;-76
2022/04/25 09:38:09;;;;;;;26.83;19.42;;;;;;;7.92;88.95;100967.28;6173798;22;20029;-76
2022/04/25 09:41:02;;;;;;;28.65;20.73;;;;;;;8.12;90.68;100992.00;6186004;23;20005;-76
2022/04/25 09:43:35;;;;;;;28.80;19.67;;;;;;;8.19;88.75;101024.22;6159711;23;20450;-75
2022/04/25 09:46:07;;;;;;;25.35;19.02;;;;;;;8.06;89.18;101018.00;6186220;23;20072;-75
2022/04/25 09:49:07;;;;;;;28.13;20.23;;;;;;;7.87;89.87;101002.69;6186270;23;20019;-76
2022/04/25 09:51:38;;;;;;;26.95;20.20;;;;;;;8.49;90.25;101106.81;6185888;23;20080;-76
2022/04/25 09:54:04;;;;;;;26.80;19.97;;;;;;;7.99;89.86;101035.50;6186198;23;20033;-76
2022/04/25 09:56:34;;;;;;;29.65;20.15;;;;;;;8.80;90.64;101170.47;6185645;23;20243;-76
2022/04/25 09:59:08;;;;;;;28.40;21.05;;;;;;;8.76;91.10;101171.53;6186233;23;20020;-76
2022/04/25 10:02:04;;;;;;;28.77;21.25;;;;;;;8.74;91.53;101180.22;6185528;22;20037;-76
2022/04/25 10:04:44;;;;;;;28.45;20.63;;;;;;;7.64;92.17;101010.66;6186015;23;20005;-76
2022/04/25 10:07:22;;;;;;;27.52;20.15;;;;;;;8.20;91.57;101102.22;6186210;23;20005;-75
2022/04/25 10:09:59;;;;;;;;;;;;;;;;;;;;;
2022/04/25 10:12:40;;;;;;;28.85;20.92;;;;;;;8.45;92.21;101120.72;6095360;22;20099;-76
2022/04/25 10:15:07;;;;;;;30.17;20.23;;;;;;;9.02;92.41;101192.56;6185730;23;20001;-76
2022/04/25 10:17:40;;;;;;;26.65;19.00;;;;;;;8.61;90.21;101128.53;6185870;23;20001;-77
2022/04/25 10:20:07;;;;;;;27.98;18.88;;;;;;;8.74;91.10;101123.59;6185794;23;20408;-76
2022/04/25 10:22:47;;;;;;;29.88;20.25;;;;;;;9.28;88.97;101197.22;6185812;23;20052;-76
2022/04/25 10:25:31;;;;;;;25.30;18.13;;;;;;;8.95;87.35;101131.97;6186026;23;20005;-76
2022/04/25 10:55:42;;;;;;;25.27;18.23;;;;;;;9.31;83.39;101155.81;6215503;23;20021;-82
2022/04/25 10:58:39;;;;;;;24.92;18.17;;;;;;;9.23;83.84;101157.13;6215252;23;20011;-79
2022/04/25 11:01:08;;;;;;;26.88;18.42;;;;;;;8.69;84.31;101063.78;6189880;23;20036;-76
2022/04/25 11:04:13;;;;;;;28.63;18.67;;;;;;;8.51;84.11;101040.66;6215481;23;20009;-76
2022/04/25 11:07:15;;;;;;;25.48;18.60;;;;;;;9.44;83.50;101231.63;6224998;23;20087;-74
2022/04/25 11:09:50;;;;;;;27.83;20.10;;;;;;;8.75;83.98;101156.16;6183371;23;20104;-78
2022/04/25 11:12:29;;;;;;;30.08;19.55;;;;;;;8.24;85.54;101096.03;6185164;23;20427;-77
2022/04/25 11:18:34;;;;;;;31.07;21.67;;;;;;;8.94;86.86;101244.47;6175499;23;20016;-80
2022/04/25 11:21:07;;;;;;;31.38;21.55;;;;;;;8.26;87.86;101149.09;6185474;23;20009;-79
2022/04/25 11:23:48;;;;;;;31.02;21.52;;;;;;;8.61;87.43;101209.16;6183707;23;20431;-81
2022/04/25 11:26:22;;;;;;;31.63;21.33;;;;;;;8.93;88.27;101249.69;6185817;23;20020;-87
2022/04/25 11:29:04;;;;;;;33.50;22.48;;;;;;;8.96;86.52;101245.25;6185680;23;20009;-81
2022/04/25 11:31:32;;;;;;;;;;;;;;;9.07;86.62;101242.13;6185098;23;20013;-82
2022/04/25 11:34:01;;;;;;;33.45;21.52;;;;;;;9.16;86.40;101255.38;6187236;23;19915;-77
2022/04/25 11:36:27;;;;;;;32.25;22.05;;;;;;;9.18;88.06;101242.41;6187664;23;20009;-84
2022/04/25 11:41:39;;;;;;;31.45;21.30;;;;;;;9.12;86.15;101228.09;6187476;23;20023;-80
2022/04/25 11:44:05;;;;;;;30.60;21.73;;;;;;;9.49;86.60;101257.16;6186949;23;20001;-80
2022/04/25 11:46:32;;;;;;;31.80;23.08;;;;;;;9.67;85.79;101260.53;6187360;23;20013;-81
2022/04/25 11:48:58;;;;;;;29.38;21.02;;;;;;;9.66;84.29;101254.53;6187820;23;20028;-81
2022/04/25 11:51:30;;;;;;;31.85;20.65;;;;;;;9.53;84.81;101255.22;6187535;23;20419;-81
2022/04/25 11:53:58;;;;;;;31.05;21.23;;;;;;;9.31;85.53;101234.88;6187678;23;20004;-91
2022/04/25 11:56:25;;;;;;;30.17;20.17;;;;;;;9.40;84.92;101255.88;6188041;23;20080;-91
2022/04/25 11:58:51;;;;;;;32.40;21.55;;;;;;;9.43;85.17;101242.81;6188408;23;20494;-89
2022/04/25 12:01:38;;;;;;;30.33;21.52;;;;;;;9.67;84.41;101257.94;6187571;23;20009;-87
2022/04/25 12:04:22;;;;;;;28.58;20.00;;;;;;;9.91;84.20;101263.53;6189044;23;20072;-93
2022/04/25 12:06:48;;;;;;;30.38;21.05;;;;;;;10.20;82.79;101259.41;6187949;23;20415;-87
2022/04/25 12:17:46;;;;;;;30.20;21.67;;;;;;;10.71;79.64;101266.03;6187168;23;20516;-91
2022/04/25 12:20:14;;;;;;;29.08;20.80;;;;;;;10.43;79.73;101209.97;6188199;23;20016;-82
2022/04/25 12:22:53;;;;;;;28.52;19.35;;;;;;;10.80;77.86;101269.84;6186955;23;20001;-92
2022/04/25 12:25:22;;;;;;;26.75;19.58;;;;;;;10.79;78.87;101255.28;6188068;23;20028;-90
2022/04/25 12:28:12;;;;;;;27.73;19.88;;;;;;;11.13;78.92;101265.34;6187180;23;20025;-86
2022/04/25 12:30:51;;;;;;;26.45;19.60;;;;;;;11.36;76.84;101273.50;6163095;23;20012;-84
2022/04/25 12:33:21;;;;;;;25.77;19.40;;;;;;;11.65;76.65;101267.41;6185718;23;20008;-80
2022/04/25 12:35:48;;;;;;;26.30;18.55;;;;;;;11.83;73.00;101269.84;6186870;23;20005;-83
2022/04/25 12:38:43;;;;;;;24.15;18.40;;;;;;;11.94;73.48;101270.03;6181260;23;20407;-84
2022/04/25 12:41:18;;;;;;;23.90;17.27;;;;;;;11.54;71.66;101240.53;6186304;23;20012;-82
2022/04/25 12:43:46;;;;;;;22.52;17.15;;;;;;;11.49;72.75;101269.25;6186001;23;20331;-81
2022/04/25 12:46:14;;;;;;;24.80;17.45;;;;;;;11.28;74.85;101245.50;6186845;23;20370;-83
2022/04/25 12:48:58;;;;;;;25.15;18.40;;;;;;;11.49;74.34;101269.25;6186843;23;20009;-82
2022/04/25 12:51:37;;;;;;;25.73;17.90;;;;;;;11.52;74.53;101269.09;6186823;23;20001;-82
2022/04/25 12:54:20;;;;;;;26.33;19.77;;;;;;;11.73;75.22;101267.78;6185937;22;20092;-86
2022/04/25 12:56:47;;;;;;;29.23;18.80;;;;;;;11.90;73.73;101259.03;6187076;23;20001;-83
2022/04/25 12:59:12;;;;;;;25.85;18.90;;;;;;;11.81;71.46;101233.72;6186816;23;20059;-83
2022/04/25 13:01:38;;;;;;;26.55;17.98;;;;;;;11.68;72.20;101192.19;6186480;23;20005;-72
2022/04/25 13:04:04;;;;;;;24.00;16.48;;;;;;;12.16;70.23;101270.34;6186732;23;20136;-85
2022/04/25 13:06:29;;;;;;;21.02;16.35;;;;;;;12.03;70.52;101262.53;6186482;23;20005;-83
2022/04/25 13:08:55;;;;;;;23.90;17.55;;;;;;;11.52;71.89;101232.88;6186701;23;20083;-86
2022/04/25 13:11:21;;;;;;;23.92;17.38;;;;;;;11.58;71.97;101273.88;6186342;23;20427;-85
2022/04/25 13:13:47;;;;;;;23.17;17.58;;;;;;;11.34;72.26;101270.19;6186932;23;20005;-85
2022/04/25 13:16:13;;;;;;;25.38;17.75;;;;;;;10.82;72.36;101237.88;6186683;23;20001;-80
2022/04/25 13:18:38;;;;;;;25.70;18.85;;;;;;;10.89;73.50;101269.31;6174063;23;20128;-83
2022/04/25 13:21:03;;;;;;;28.90;19.98;;;;;;;10.85;73.94;101271.25;6184896;23;20423;-88
2022/04/25 13:23:30;;;;;;;27.98;20.20;;;;;;;10.60;75.40;101237.41;6185907;23;20033;-85
2022/04/25 13:25:55;;;;;;;27.73;20.20;;;;;;;10.72;75.60;101275.47;6186420;23;20430;-83
2022/04/25 13:28:21;;;;;;;31.85;20.92;;;;;;;10.51;76.54;101254.25;6186557;23;20077;-84
2022/04/25 13:30:46;;;;;;;29.90;20.92;;;;;;;10.32;75.56;101243.25;6186253;23;20482;-84
2022/04/25 13:33:11;;;;;;;33.35;21.75;;;;;;;10.41;77.09;101260.00;6186293;23;20001;-84
2022/04/25 13:35:37;;;;;;;30.63;21.88;;;;;;;10.54;77.29;101285.06;6186928;23;20482;-84
2022/04/25 13:38:02;;;;;;;32.08;22.50;;;;;;;10.53;77.40;101272.25;6186158;23;20036;-85
2022/04/25 13:40:27;;;;;;;31.92;23.08;;;;;;;10.64;76.95;101277.66;6186011;23;20020;-82
2022/04/25 13:42:53;;;;;;;34.55;22.45;;;;;;;10.54;75.85;101264.41;6186450;23;20005;-77
2022/04/25 13:45:19;;;;;;;31.25;21.75;;;;;;;10.49;76.74;101253.50;6186172;23;20392;-77
2022/04/25 13:47:44;;;;;;;37.17;24.05;;;;;;;10.19;76.56;101229.34;6186175;23;20011;-84
2022/04/25 13:50:10;;;;;;;35.47;24.73;;;;;;;10.44;77.30;101278.75;6186201;23;20075;-76
2022/04/25 13:52:36;;;;;;;35.63;24.23;;;;;;;10.43;76.71;101277.09;6185841;23;20005;-82
2022/04/25 13:55:01;;;;;;;36.03;24.10;;;;;;;10.49;77.66;101281.91;6185625;23;20009;-85
2022/04/25 14:04:07;;;;;;;34.17;23.73;;;;;;;10.85;76.18;101283.34;6186218;23;20055;-83